Time;durP1;ratioP1;P1;durP2;ratioP2;P2;SDS_P1;SDS_P2;PMS_P1;PMS_P2;Temp;Humidity;BMP_temperature;BMP_pressure;BME280_temperature;BME280_humidity;BME280_pressure;Samples;Min_cycle;Max_cycle;Signal;HPM_P1;HPM_P2
2022/05/17 00:02:25;;;;;;;4.20;1.98;;;;;;;;;;5091722;28;20028;-68
2022/05/17 00:04:51;;;;;;;4.80;1.80;;;;;;;;;;5091429;28;20434;-68
2022/05/17 00:07:18;;;;;;;5.32;2.70;;;;;;;;;;5090970;28;20470;-68
2022/05/17 00:09:44;;;;;;;3.90;2.88;;;;;;;;;;5092032;28;20055;-68
2022/05/17 00:12:10;;;;;;;6.88;3.45;;;;;;;;;;5091164;28;20020;-68
2022/05/17 00:14:36;;;;;;;8.10;3.28;;;;;;;;;;5090816;28;20024;-69
2022/05/17 00:17:03;;;;;;;4.97;3.47;;;;;;;;;;5091830;28;20032;-68
2022/05/17 00:19:29;;;;;;;5.22;3.10;;;;;;;;;;5090435;28;20036;-68
2022/05/17 00:21:56;;;;;;;8.13;3.13;;;;;;;;;;5091789;28;20032;-68
2022/05/17 00:24:23;;;;;;;4.03;2.80;;;;;;;;;;5091951;28;20466;-68
2022/05/17 00:26:49;;;;;;;7.88;3.30;;;;;;;;;;5092794;28;20496;-68
2022/05/17 00:29:15;;;;;;;6.55;3.15;;;;;;;;;;5096054;28;20036;-68
2022/05/17 00:31:41;;;;;;;6.68;3.20;;;;;;;;;;5095870;28;20036;-68
2022/05/17 00:34:08;;;;;;;7.93;3.40;;;;;;;;;;5095025;28;20028;-68
2022/05/17 00:36:35;;;;;;;4.30;3.25;;;;;;;;;;5094903;28;20024;-68
2022/05/17 00:39:01;;;;;;;6.95;3.33;;;;;;;;;;5095559;28;20032;-68
2022/05/17 00:41:27;;;;;;;4.07;2.75;;;;;;;;;;5095742;28;20128;-68
2022/05/17 00:47:17;;;;;;;4.13;2.85;;;;;;;;;;5095836;28;20570;-68
2022/05/17 00:49:44;;;;;;;4.43;3.05;;;;;;;;;;5052709;28;20498;-69
2022/05/17 00:52:12;;;;;;;12.98;3.58;;;;;;;;;;5053021;28;20492;-68
2022/05/17 00:54:41;;;;;;;4.03;2.92;;;;;;;;;;5073848;28;20033;-68
2022/05/17 00:57:19;;;;;;;8.43;3.30;;;;;;;;;;5095244;28;20116;-69
2022/05/17 00:59:45;;;;;;;9.65;3.08;;;;;;;;;;5092093;28;20690;-69
2022/05/17 01:02:12;;;;;;;4.65;2.97;;;;;;;;;;5092322;28;20031;-68
2022/05/17 01:04:39;;;;;;;9.23;3.20;;;;;;;;;;5093210;28;20024;-68
2022/05/17 01:07:09;;;;;;;6.60;2.58;;;;;;;;;;5094773;28;20470;-68
2022/05/17 01:09:35;;;;;;;7.57;3.05;;;;;;;;;;5093858;28;20051;-68
2022/05/17 01:12:01;;;;;;;9.00;2.80;;;;;;;;;;5094847;28;20144;-67
2022/05/17 01:17:12;;;;;;;7.03;2.60;;;;;;;;;;5095388;28;20092;-68
2022/05/17 01:19:42;;;;;;;4.90;2.40;;;;;;;;;;5094713;28;20044;-68
2022/05/17 01:22:09;;;;;;;4.57;2.30;;;;;;;;;;5094836;28;20099;-69
2022/05/17 01:24:35;;;;;;;6.10;2.22;;;;;;;;;;5095035;28;20028;-68
2022/05/17 01:27:07;;;;;;;6.63;2.40;;;;;;;;;;5094831;28;20056;-68
2022/05/17 01:29:40;;;;;;;4.93;2.50;;;;;;;;;;5094723;28;20024;-68
2022/05/17 01:32:06;;;;;;;8.00;2.60;;;;;;;;;;5094751;28;20170;-68
2022/05/17 01:34:34;;;;;;;6.00;2.67;;;;;;;;;;5094665;28;20047;-68
2022/05/17 01:37:00;;;;;;;6.75;2.50;;;;;;;;;;5094498;28;20487;-68
2022/05/17 01:39:28;;;;;;;8.13;2.63;;;;;;;;;;5093362;28;20057;-69
2022/05/17 01:41:54;;;;;;;5.53;2.70;;;;;;;;;;5094717;28;20487;-68
2022/05/17 01:44:20;;;;;;;5.18;2.80;;;;;;;;;;5093988;28;20020;-68
2022/05/17 01:46:46;;;;;;;3.97;2.55;;;;;;;;;;5094821;28;20043;-68
2022/05/17 01:49:12;;;;;;;10.27;2.75;;;;;;;;;;5094128;28;20427;-68
2022/05/17 01:51:38;;;;;;;6.95;2.60;;;;;;;;;;5094113;28;20131;-68
2022/05/17 01:54:04;;;;;;;8.43;2.40;;;;;;;;;;5094159;28;20048;-68
2022/05/17 01:56:31;;;;;;;6.40;2.60;;;;;;;;;;5094381;28;20098;-68
2022/05/17 01:58:57;;;;;;;7.90;2.80;;;;;;;;;;5094055;28;20089;-68
2022/05/17 02:01:23;;;;;;;11.05;2.20;;;;;;;;;;5094176;28;20020;-68
2022/05/17 02:03:49;;;;;;;8.13;2.67;;;;;;;;;;5093985;28;20055;-68
2022/05/17 02:06:15;;;;;;;6.15;2.75;;;;;;;;;;5093786;28;20390;-68
2022/05/17 02:08:41;;;;;;;8.05;2.42;;;;;;;;;;5093704;28;20551;-68
2022/05/17 02:11:07;;;;;;;5.30;2.22;;;;;;;;;;5093979;28;20028;-68
2022/05/17 02:13:34;;;;;;;7.07;2.55;;;;;;;;;;5093818;28;20028;-68
2022/05/17 02:16:00;;;;;;;4.85;2.13;;;;;;;;;;5093828;28;20426;-68
2022/05/17 02:18:27;;;;;;;5.03;2.63;;;;;;;;;;5093811;28;20036;-68
2022/05/17 02:20:53;;;;;;;5.03;2.35;;;;;;;;;;5093956;28;20024;-68
2022/05/17 02:23:19;;;;;;;11.40;2.60;;;;;;;;;;5093702;28;20025;-68
2022/05/17 02:25:45;;;;;;;6.95;2.33;;;;;;;;;;5093521;28;20526;-68
2022/05/17 02:28:12;;;;;;;6.95;2.97;;;;;;;;;;5093650;28;20020;-68
2022/05/17 02:30:40;;;;;;;8.13;3.50;;;;;;;;;;5093855;28;20385;-68
2022/05/17 02:33:06;;;;;;;6.75;3.50;;;;;;;;;;5092994;28;20040;-68
2022/05/17 02:35:32;;;;;;;5.47;3.80;;;;;;;;;;5092603;28;20020;-68
2022/05/17 02:37:58;;;;;;;4.95;4.10;;;;;;;;;;5092859;28;20101;-68
2022/05/17 02:40:24;;;;;;;8.57;4.45;;;;;;;;;;5093167;28;20074;-68
2022/05/17 02:42:50;;;;;;;8.95;3.88;;;;;;;;;;5093205;28;20028;-69
2022/05/17 02:45:16;;;;;;;9.98;3.03;;;;;;;;;;5092552;28;20108;-68
2022/05/17 02:47:42;;;;;;;5.95;3.63;;;;;;;;;;5093374;28;20020;-69
2022/05/17 02:50:09;;;;;;;7.40;3.30;;;;;;;;;;5093207;28;20131;-69
2022/05/17 02:52:35;;;;;;;6.47;3.97;;;;;;;;;;5093024;28;20039;-68
2022/05/17 02:55:01;;;;;;;6.82;3.22;;;;;;;;;;5093415;28;20054;-68
2022/05/17 02:57:27;;;;;;;8.38;3.15;;;;;;;;;;5093310;28;20094;-68
2022/05/17 02:59:53;;;;;;;5.70;3.33;;;;;;;;;;5093435;28;20020;-68
2022/05/17 03:02:19;;;;;;;7.20;3.90;;;;;;;;;;5093255;28;20092;-68
2022/05/17 03:04:46;;;;;;;8.63;3.50;;;;;;;;;;5092838;28;20024;-68
2022/05/17 03:07:12;;;;;;;5.47;3.10;;;;;;;;;;5092672;28;20030;-68
2022/05/17 03:09:38;;;;;;;3.83;2.70;;;;;;;;;;5092979;28;20230;-68
2022/05/17 03:12:05;;;;;;;10.70;2.83;;;;;;;;;;5092911;28;20557;-68
2022/05/17 03:14:31;;;;;;;6.40;2.85;;;;;;;;;;5092836;28;20023;-69
2022/05/17 03:16:57;;;;;;;6.22;3.05;;;;;;;;;;5092934;28;20217;-68
2022/05/17 03:19:23;;;;;;;4.15;2.70;;;;;;;;;;5092654;28;20049;-68
2022/05/17 03:21:49;;;;;;;6.43;2.97;;;;;;;;;;5092558;28;20032;-69
2022/05/17 03:24:16;;;;;;;3.58;2.88;;;;;;;;;;5092873;28;20099;-68
2022/05/17 03:26:42;;;;;;;7.25;3.40;;;;;;;;;;5091151;28;20436;-68
2022/05/17 03:29:08;;;;;;;8.77;3.40;;;;;;;;;;5092499;28;20077;-68
2022/05/17 03:31:36;;;;;;;6.15;3.40;;;;;;;;;;5092767;28;20039;-69
2022/05/17 03:34:02;;;;;;;14.30;3.55;;;;;;;;;;5092783;28;20012;-68
2022/05/17 03:36:28;;;;;;;24.10;3.45;;;;;;;;;;5092804;28;20039;-68
2022/05/17 03:38:54;;;;;;;14.23;2.80;;;;;;;;;;5092798;28;20026;-68
2022/05/17 03:41:20;;;;;;;9.98;2.90;;;;;;;;;;5092523;28;20107;-68
2022/05/17 03:43:47;;;;;;;7.55;3.30;;;;;;;;;;5092348;28;20020;-68
2022/05/17 03:46:13;;;;;;;6.18;2.85;;;;;;;;;;5092699;28;20051;-68
2022/05/17 03:48:39;;;;;;;5.32;2.80;;;;;;;;;;5092321;28;20035;-68
2022/05/17 03:51:12;;;;;;;8.75;2.70;;;;;;;;;;5092401;28;20020;-68
2022/05/17 03:53:38;;;;;;;4.10;2.45;;;;;;;;;;5092404;28;20032;-68
2022/05/17 03:56:04;;;;;;;7.50;2.38;;;;;;;;;;5092807;28;20034;-68
2022/05/17 03:58:30;;;;;;;5.40;2.80;;;;;;;;;;5092494;28;20073;-68
2022/05/17 04:00:56;;;;;;;4.70;2.75;;;;;;;;;;5092366;28;20381;-68
2022/05/17 04:03:22;;;;;;;5.90;3.03;;;;;;;;;;5095541;28;20024;-68
2022/05/17 04:05:48;;;;;;;6.60;2.70;;;;;;;;;;5096322;28;20024;-68
2022/05/17 04:08:14;;;;;;;7.00;3.17;;;;;;;;;;5096173;28;20047;-68
2022/05/17 04:10:40;;;;;;;5.70;2.85;;;;;;;;;;5096263;28;20027;-68
2022/05/17 04:13:06;;;;;;;5.40;3.15;;;;;;;;;;5095868;28;20039;-68
2022/05/17 04:15:32;;;;;;;7.57;3.17;;;;;;;;;;5096261;28;20019;-68
2022/05/17 04:17:58;;;;;;;4.60;3.47;;;;;;;;;;5096351;28;20089;-68
2022/05/17 04:20:26;;;;;;;5.65;2.83;;;;;;;;;;5096068;28;20358;-67
2022/05/17 04:22:54;;;;;;;6.95;2.80;;;;;;;;;;5095962;28;20028;-68
2022/05/17 04:25:22;;;;;;;8.90;3.15;;;;;;;;;;5096248;28;20039;-68
2022/05/17 04:27:49;;;;;;;8.40;3.10;;;;;;;;;;5095360;28;20504;-69
2022/05/17 04:30:15;;;;;;;13.27;3.63;;;;;;;;;;5096326;28;20028;-68
2022/05/17 04:32:42;;;;;;;6.53;3.70;;;;;;;;;;5095350;28;20064;-68
2022/05/17 04:35:08;;;;;;;7.60;3.42;;;;;;;;;;5096005;28;20020;-68
2022/05/17 04:37:36;;;;;;;5.10;3.72;;;;;;;;;;5095678;28;20472;-68
2022/05/17 04:40:02;;;;;;;9.07;3.47;;;;;;;;;;5095350;28;20024;-68
2022/05/17 04:42:28;;;;;;;7.72;3.45;;;;;;;;;;5096327;28;20024;-68
2022/05/17 04:44:54;;;;;;;8.05;3.70;;;;;;;;;;5096049;28;20031;-68
2022/05/17 04:47:20;;;;;;;13.43;4.43;;;;;;;;;;5096045;28;20028;-68
2022/05/17 04:49:46;;;;;;;6.88;3.47;;;;;;;;;;5095250;28;20028;-68
2022/05/17 04:52:13;;;;;;;7.13;3.53;;;;;;;;;;5095195;28;20110;-68
2022/05/17 04:54:39;;;;;;;6.88;4.50;;;;;;;;;;5095588;28;20031;-68
2022/05/17 04:57:05;;;;;;;10.15;5.15;;;;;;;;;;5095616;28;20028;-68
2022/05/17 04:59:31;;;;;;;8.60;5.40;;;;;;;;;;5095467;28;20081;-69
2022/05/17 05:01:57;;;;;;;9.35;5.38;;;;;;;;;;5094707;28;20470;-68
2022/05/17 05:04:23;;;;;;;14.88;5.30;;;;;;;;;;5095588;28;20023;-68
2022/05/17 05:06:49;;;;;;;7.93;5.57;;;;;;;;;;5095504;28;20020;-68
2022/05/17 05:09:15;;;;;;;10.30;5.80;;;;;;;;;;5094967;28;21317;-68
2022/05/17 05:11:41;;;;;;;10.73;6.18;;;;;;;;;;5095073;28;20032;-68
2022/05/17 05:14:08;;;;;;;10.18;5.63;;;;;;;;;;5093249;28;20060;-68
2022/05/17 05:16:37;;;;;;;15.10;5.80;;;;;;;;;;5094720;28;20020;-68
2022/05/17 05:19:03;;;;;;;7.20;5.32;;;;;;;;;;5094856;28;20088;-68
2022/05/17 05:21:29;;;;;;;13.02;5.72;;;;;;;;;;5094997;28;20024;-70
2022/05/17 05:23:55;;;;;;;11.77;5.85;;;;;;;;;;5095343;28;20107;-70
2022/05/17 05:26:21;;;;;;;10.95;5.68;;;;;;;;;;5094853;28;20476;-69
2022/05/17 05:28:47;;;;;;;5.70;4.85;;;;;;;;;;5093660;28;20374;-70
2022/05/17 05:31:15;;;;;;;9.75;3.58;;;;;;;;;;5094408;28;20477;-68
2022/05/17 05:33:41;;;;;;;8.77;3.17;;;;;;;;;;5094849;28;20500;-68
2022/05/17 05:36:07;;;;;;;8.23;3.20;;;;;;;;;;5092118;28;20016;-68
2022/05/17 05:38:34;;;;;;;4.85;3.15;;;;;;;;;;5092455;28;20107;-67
2022/05/17 05:41:00;;;;;;;8.73;3.40;;;;;;;;;;5091531;28;20027;-69
2022/05/17 05:43:26;;;;;;;8.80;3.33;;;;;;;;;;5093389;28;20462;-67
2022/05/17 05:45:52;;;;;;;12.48;3.95;;;;;;;;;;5093748;28;20524;-69
2022/05/17 05:48:18;;;;;;;8.27;2.90;;;;;;;;;;5094140;28;20107;-67
2022/05/17 05:50:47;;;;;;;6.40;3.40;;;;;;;;;;5094304;28;20039;-69
2022/05/17 05:53:13;;;;;;;8.68;3.63;;;;;;;;;;5094084;28;20032;-68
2022/05/17 05:55:43;;;;;;;7.10;2.58;;;;;;;;;;5094175;28;20024;-70
2022/05/17 05:58:10;;;;;;;6.75;2.78;;;;;;;;;;5094200;28;20052;-70
2022/05/17 06:00:37;;;;;;;7.07;2.50;;;;;;;;;;5094086;28;20036;-70
2022/05/17 06:03:04;;;;;;;6.55;2.45;;;;;;;;;;5094520;28;20036;-68
2022/05/17 06:05:30;;;;;;;8.25;2.45;;;;;;;;;;5094542;28;20032;-68
2022/05/17 06:07:56;;;;;;;9.13;2.85;;;;;;;;;;5094239;28;20115;-69
2022/05/17 06:10:23;;;;;;;8.40;2.20;;;;;;;;;;5093926;28;20040;-69
2022/05/17 06:12:49;;;;;;;8.13;2.63;;;;;;;;;;5093843;28;20453;-69
2022/05/17 06:15:15;;;;;;;3.67;2.50;;;;;;;;;;5094190;28;20489;-70
2022/05/17 06:17:42;;;;;;;14.32;2.92;;;;;;;;;;5094203;28;20031;-69
2022/05/17 06:20:11;;;;;;;6.63;2.40;;;;;;;;;;5092811;28;20020;-70
2022/05/17 06:22:38;;;;;;;6.72;2.30;;;;;;;;;;5091590;28;20039;-70
2022/05/17 06:25:04;;;;;;;55.15;5.20;;;;;;;;;;5092987;28;20024;-69
2022/05/17 06:27:30;;;;;;;20.17;3.45;;;;;;;;;;5093750;28;20478;-69
2022/05/17 06:29:56;;;;;;;7.45;3.10;;;;;;;;;;5093547;28;20099;-69
2022/05/17 06:32:22;;;;;;;4.32;2.00;;;;;;;;;;5093330;28;20122;-69
2022/05/17 06:34:48;;;;;;;4.50;2.15;;;;;;;;;;5094094;28;20063;-69
2022/05/17 06:37:15;;;;;;;6.18;2.50;;;;;;;;;;5093637;28;20497;-70
2022/05/17 06:39:42;;;;;;;6.28;2.28;;;;;;;;;;5093802;28;20020;-69
2022/05/17 06:42:08;;;;;;;7.72;2.28;;;;;;;;;;5093790;28;20153;-69
2022/05/17 06:44:34;;;;;;;6.80;2.42;;;;;;;;;;5093703;28;20026;-69
2022/05/17 06:47:01;;;;;;;4.18;2.17;;;;;;;;;;5094004;28;20073;-69
2022/05/17 06:49:28;;;;;;;14.13;2.70;;;;;;;;;;5093788;28;20020;-69
2022/05/17 06:51:54;;;;;;;9.35;2.42;;;;;;;;;;5093320;28;20047;-69
2022/05/17 06:54:20;;;;;;;10.52;3.63;;;;;;;;;;5093395;28;20470;-68
2022/05/17 06:56:46;;;;;;;11.70;4.55;;;;;;;;;;5093705;28;20055;-68
2022/05/17 06:59:12;;;;;;;18.48;4.50;;;;;;;;;;5093425;28;20046;-68
2022/05/17 07:01:39;;;;;;;10.93;4.72;;;;;;;;;;5093299;28;20031;-68
2022/05/17 07:04:05;;;;;;;10.40;4.30;;;;;;;;;;5093217;28;20031;-68
2022/05/17 07:06:31;;;;;;;23.55;4.45;;;;;;;;;;5093297;28;20522;-68
2022/05/17 07:08:58;;;;;;;9.90;3.85;;;;;;;;;;5093225;28;20509;-68
2022/05/17 07:14:08;;;;;;;10.32;4.55;;;;;;;;;;5093508;28;20178;-68
2022/05/17 07:16:35;;;;;;;11.65;4.30;;;;;;;;;;5092894;28;20048;-70
2022/05/17 07:19:02;;;;;;;13.35;4.65;;;;;;;;;;5093093;28;20056;-68
2022/05/17 07:21:28;;;;;;;13.10;4.68;;;;;;;;;;5093781;28;20453;-68
2022/05/17 07:23:54;;;;;;;9.18;4.88;;;;;;;;;;5093223;28;20530;-68
2022/05/17 07:26:20;;;;;;;11.45;4.20;;;;;;;;;;5093297;28;20042;-68
2022/05/17 07:28:50;;;;;;;13.63;4.05;;;;;;;;;;5093059;28;20024;-68
2022/05/17 07:31:16;;;;;;;9.40;3.70;;;;;;;;;;5092979;28;20389;-68
2022/05/17 07:33:43;;;;;;;9.90;4.20;;;;;;;;;;5093099;28;20026;-68
2022/05/17 07:36:09;;;;;;;11.25;4.13;;;;;;;;;;5092429;28;20530;-69
2022/05/17 07:38:36;;;;;;;11.38;4.30;;;;;;;;;;5093184;28;20073;-69
2022/05/17 07:41:03;;;;;;;9.10;3.58;;;;;;;;;;5092910;28;20028;-68
2022/05/17 07:43:29;;;;;;;5.78;3.40;;;;;;;;;;5092814;28;20085;-68
2022/05/17 07:45:55;;;;;;;6.53;3.20;;;;;;;;;;5092995;28;20017;-68
2022/05/17 07:48:22;;;;;;;23.80;3.50;;;;;;;;;;5092855;28;20492;-68
2022/05/17 07:50:49;;;;;;;42.45;3.65;;;;;;;;;;5092849;28;20023;-68
2022/05/17 07:53:16;;;;;;;24.27;3.15;;;;;;;;;;5092728;28;20032;-68
2022/05/17 07:55:43;;;;;;;10.55;2.72;;;;;;;;;;5092791;28;20021;-68
2022/05/17 07:58:09;;;;;;;4.53;2.47;;;;;;;;;;5093025;28;20032;-68
2022/05/17 08:00:36;;;;;;;30.67;3.88;;;;;;;;;;5092766;28;20012;-68
2022/05/17 08:03:04;;;;;;;16.30;2.67;;;;;;;;;;5092797;28;20035;-68
2022/05/17 08:05:31;;;;;;;5.93;2.83;;;;;;;;;;5092552;28;20020;-68
2022/05/17 08:07:57;;;;;;;5.15;2.72;;;;;;;;;;5092524;28;20024;-67
2022/05/17 08:10:23;;;;;;;10.38;3.05;;;;;;;;;;5092625;28;20123;-70
2022/05/17 08:12:50;;;;;;;5.72;3.03;;;;;;;;;;5092513;28;20456;-68
2022/05/17 08:15:19;;;;;;;19.55;3.17;;;;;;;;;;5092438;28;20032;-68
2022/05/17 08:17:45;;;;;;;16.52;3.63;;;;;;;;;;5092791;28;20048;-69
2022/05/17 08:20:12;;;;;;;13.18;3.15;;;;;;;;;;5092609;28;20024;-68
2022/05/17 08:22:42;;;;;;;1516.10;131.95;;;;;;;;;;5092730;28;20016;-68
2022/05/17 08:27:54;;;;;;;11.02;3.38;;;;;;;;;;5092831;28;20035;-68
2022/05/17 08:30:21;;;;;;;14.60;3.58;;;;;;;;;;5092598;28;20519;-68
2022/05/17 08:35:39;;;;;;;9.02;3.00;;;;;;;;;;5092697;28;20039;-68
2022/05/17 08:38:05;;;;;;;7.57;3.15;;;;;;;;;;5092650;28;20106;-68
2022/05/17 08:40:33;;;;;;;65.40;6.22;;;;;;;;;;5092205;28;20020;-68
2022/05/17 08:43:08;;;;;;;5.03;3.08;;;;;;;;;;5092159;28;20040;-68
2022/05/17 08:45:46;;;;;;;20.77;3.95;;;;;;;;;;5092286;28;20032;-68
2022/05/17 08:48:16;;;;;;;8.02;2.75;;;;;;;;;;5093887;28;20024;-68
2022/05/17 08:50:43;;;;;;;10.63;3.50;;;;;;;;;;5095629;28;20028;-68
2022/05/17 08:53:13;;;;;;;8.02;3.15;;;;;;;;;;5095667;28;20438;-68
2022/05/17 08:55:41;;;;;;;6.55;3.05;;;;;;;;;;5095836;28;20032;-77
2022/05/17 08:58:09;;;;;;;7.80;3.00;;;;;;;;;;5095673;28;20087;-68
2022/05/17 09:00:38;;;;;;;10.85;3.25;;;;;;;;;;5095779;28;20065;-68
2022/05/17 09:03:19;;;;;;;10.50;3.17;;;;;;;;;;5095888;28;20103;-77
2022/05/17 09:06:00;;;;;;;5.22;2.80;;;;;;;;;;5096017;28;20020;-80
2022/05/17 09:08:32;;;;;;;10.40;2.90;;;;;;;;;;5095564;28;20024;-69
2022/05/17 09:10:58;;;;;;;;;;;;;;;;;;5095883;28;20128;-69
2022/05/17 09:13:24;;;;;;;7.78;2.95;;;;;;;;;;5095665;28;20073;-69
2022/05/17 13:53:25;;;;;;;7.90;2.38;;;;;;;;;;5131120;27;20471;-65
2022/05/17 13:55:51;;;;;;;9.48;2.22;;;;;;;;;;5131526;28;20392;-65
2022/05/17 13:58:17;;;;;;;8.27;2.42;;;;;;;;;;5131208;28;20452;-66
2022/05/17 14:00:58;;;;;;;8.38;2.20;;;;;;;;;;5131230;28;20047;-67
2022/05/17 14:03:25;;;;;;;72.55;10.32;;;;;;;;;;5131068;28;20020;-66
2022/05/17 14:05:51;;;;;;;44.05;11.55;;;;;;;;;;5130967;28;20102;-66
2022/05/17 14:14:00;;;;;;;42.05;10.13;;;;;;;;;;5130792;28;20123;-66
2022/05/17 14:16:30;;;;;;;4.60;2.00;;;;;;;;;;5130514;28;20034;-66
2022/05/17 14:18:58;;;;;;;52.55;7.40;;;;;;;;;;5130586;28;20148;-67
2022/05/17 14:21:24;;;;;;;44.60;11.93;;;;;;;;;;5130545;28;20028;-66
2022/05/17 14:23:50;;;;;;;58.47;16.17;;;;;;;;;;5130196;28;20099;-67
2022/05/17 14:26:18;;;;;;;103.43;27.02;;;;;;;;;;5130396;28;20020;-67
2022/05/17 14:28:44;;;;;;;9.68;3.80;;;;;;;;;;5130637;28;20020;-66
2022/05/17 14:31:16;;;;;;;49.95;16.52;;;;;;;;;;5129917;28;20198;-67
2022/05/17 14:33:42;;;;;;;69.85;17.05;;;;;;;;;;5130187;28;20034;-67
2022/05/17 14:36:12;;;;;;;29.70;10.65;;;;;;;;;;5130271;28;20414;-66
2022/05/17 14:38:38;;;;;;;26.67;9.55;;;;;;;;;;5129971;28;20037;-66
2022/05/17 14:41:05;;;;;;;54.28;18.85;;;;;;;;;;5130244;28;20106;-66
2022/05/17 14:43:31;;;;;;;11.77;3.92;;;;;;;;;;5130008;28;20069;-66
2022/05/17 14:45:58;;;;;;;18.27;5.80;;;;;;;;;;5129962;28;20444;-66
2022/05/17 14:48:25;;;;;;;42.50;10.30;;;;;;;;;;5130006;28;20059;-66
2022/05/17 14:50:51;;;;;;;35.40;7.85;;;;;;;;;;5129608;28;20020;-66
2022/05/17 14:53:17;;;;;;;14.57;2.50;;;;;;;;;;5129265;28;20142;-66
2022/05/17 14:55:43;;;;;;;118.68;29.45;;;;;;;;;;5130130;28;20431;-66
2022/05/17 14:58:09;;;;;;;19.73;5.65;;;;;;;;;;5129922;28;20027;-66
2022/05/17 15:00:36;;;;;;;13.75;3.33;;;;;;;;;;5129654;28;20028;-67
2022/05/17 15:03:05;;;;;;;11.77;2.67;;;;;;;;;;5125417;28;20050;-66
2022/05/17 15:05:31;;;;;;;18.48;5.53;;;;;;;;;;5116099;28;20023;-66
2022/05/17 15:07:58;;;;;;;12.50;2.53;;;;;;;;;;5115727;28;20134;-66
2022/05/17 15:10:26;;;;;;;7.45;1.65;;;;;;;;;;5115989;28;20023;-66
2022/05/17 15:12:53;;;;;;;6.45;1.40;;;;;;;;;;5115913;28;20034;-67
2022/05/17 15:15:20;;;;;;;11.93;2.45;;;;;;;;;;5115653;28;20435;-67
2022/05/17 15:17:52;;;;;;;6.90;2.20;;;;;;;;;;5115896;28;20027;-67
2022/05/17 15:20:19;;;;;;;3.85;1.50;;;;;;;;;;5115908;28;20027;-67
2022/05/17 15:22:46;;;;;;;4.95;1.50;;;;;;;;;;5115654;28;20027;-66
2022/05/17 15:25:13;;;;;;;5.30;1.10;;;;;;;;;;5115882;28;20055;-66
2022/05/17 15:27:40;;;;;;;6.90;1.52;;;;;;;;;;5115730;28;20020;-66
2022/05/17 15:30:06;;;;;;;4.63;1.20;;;;;;;;;;5115089;28;20059;-66
2022/05/17 15:32:32;;;;;;;3.70;1.13;;;;;;;;;;5115615;28;20491;-66
2022/05/17 15:34:59;;;;;;;6.72;1.42;;;;;;;;;;5115431;28;20471;-66
2022/05/17 15:37:25;;;;;;;7.20;1.60;;;;;;;;;;5115141;28;20024;-67
2022/05/17 15:39:51;;;;;;;6.38;1.15;;;;;;;;;;5114554;28;20410;-67
2022/05/17 15:42:18;;;;;;;4.93;1.48;;;;;;;;;;5115417;28;20120;-66
2022/05/17 15:44:44;;;;;;;8.35;1.50;;;;;;;;;;5115518;28;20479;-67
2022/05/17 15:55:37;;;;;;;14.55;3.03;;;;;;;;;;5114921;28;20513;-66
2022/05/17 15:58:03;;;;;;;7.90;1.75;;;;;;;;;;5114862;28;20020;-66
2022/05/17 16:00:29;;;;;;;6.20;1.90;;;;;;;;;;5114631;28;20468;-66
2022/05/17 16:02:55;;;;;;;4.22;1.40;;;;;;;;;;5115004;28;20046;-66
2022/05/17 16:05:21;;;;;;;6.55;1.50;;;;;;;;;;5115190;28;20456;-66
2022/05/17 16:08:02;;;;;;;3.90;1.40;;;;;;;;;;5114980;28;20015;-66
2022/05/17 16:10:30;;;;;;;5.25;1.10;;;;;;;;;;5114616;28;20035;-67
2022/05/17 16:12:56;;;;;;;4.03;1.30;;;;;;;;;;5114916;28;20059;-67
2022/05/17 16:15:22;;;;;;;4.03;1.27;;;;;;;;;;5114179;28;20106;-66
2022/05/17 16:17:54;;;;;;;2.47;1.10;;;;;;;;;;5114866;28;20019;-66
2022/05/17 16:20:21;;;;;;;6.70;2.10;;;;;;;;;;5114899;28;20016;-67
2022/05/17 16:22:48;;;;;;;5.80;1.60;;;;;;;;;;5114664;28;20387;-67
2022/05/17 16:25:15;;;;;;;4.00;1.30;;;;;;;;;;5114334;28;20016;-66
2022/05/17 16:27:41;;;;;;;4.68;1.80;;;;;;;;;;5115008;28;20031;-66
2022/05/17 16:30:10;;;;;;;4.60;1.50;;;;;;;;;;5114932;28;20036;-66
2022/05/17 16:32:37;;;;;;;4.40;1.40;;;;;;;;;;5096539;28;20059;-66
2022/05/17 16:35:04;;;;;;;7.55;1.45;;;;;;;;;;5114774;28;20426;-66
2022/05/17 16:37:30;;;;;;;5.40;2.85;;;;;;;;;;5114561;28;20028;-66
2022/05/17 16:39:57;;;;;;;5.07;2.55;;;;;;;;;;5114609;28;20353;-66
2022/05/17 16:42:23;;;;;;;10.57;2.97;;;;;;;;;;5114818;28;20472;-66
2022/05/17 16:44:49;;;;;;;6.63;2.13;;;;;;;;;;5114731;28;20023;-66
2022/05/17 16:47:16;;;;;;;7.43;1.40;;;;;;;;;;5113804;28;20434;-66
2022/05/17 16:49:42;;;;;;;2.50;1.30;;;;;;;;;;5113938;28;20026;-66
2022/05/17 16:52:09;;;;;;;6.25;1.70;;;;;;;;;;5113685;28;20056;-66
2022/05/17 16:54:35;;;;;;;4.88;1.60;;;;;;;;;;5113517;28;20062;-67
2022/05/17 16:57:01;;;;;;;3.10;1.50;;;;;;;;;;5113651;28;20475;-66
2022/05/17 16:59:27;;;;;;;4.10;1.80;;;;;;;;;;5111806;28;20020;-66
2022/05/17 17:01:54;;;;;;;9.70;1.85;;;;;;;;;;5113555;28;20470;-66
2022/05/17 17:04:21;;;;;;;6.45;1.15;;;;;;;;;;5113902;28;20012;-66
2022/05/17 17:06:47;;;;;;;5.03;1.38;;;;;;;;;;5109373;28;20491;-66
2022/05/17 17:09:14;;;;;;;7.28;1.35;;;;;;;;;;5103362;28;20015;-66
2022/05/17 17:11:40;;;;;;;9.85;1.42;;;;;;;;;;5113357;28;20480;-68
2022/05/17 17:14:07;;;;;;;7.40;1.60;;;;;;;;;;5110900;28;20100;-67
2022/05/17 17:16:33;;;;;;;8.40;1.50;;;;;;;;;;5111040;28;20055;-66
2022/05/17 17:19:00;;;;;;;6.60;1.60;;;;;;;;;;5111957;28;20043;-66
2022/05/17 17:21:27;;;;;;;4.50;1.30;;;;;;;;;;5113485;28;20032;-67
2022/05/17 17:23:53;;;;;;;4.78;1.50;;;;;;;;;;5113817;28;20031;-66
2022/05/17 17:26:19;;;;;;;3.80;1.30;;;;;;;;;;5095382;28;20020;-66
2022/05/17 17:28:46;;;;;;;6.55;1.50;;;;;;;;;;5113499;28;20055;-67
2022/05/17 17:31:13;;;;;;;2.67;1.60;;;;;;;;;;5113371;28;20024;-66
2022/05/17 17:39:09;;;;;;;2.83;1.55;;;;;;;;;;5113233;28;20545;-67
2022/05/17 17:41:35;;;;;;;9.77;1.50;;;;;;;;;;5113475;28;20032;-67
2022/05/17 17:44:03;;;;;;;5.28;1.67;;;;;;;;;;5113281;28;20383;-67
2022/05/17 17:46:29;;;;;;;6.60;2.05;;;;;;;;;;5113221;28;20049;-66
2022/05/17 17:48:55;;;;;;;7.10;1.77;;;;;;;;;;5112185;28;20058;-66
2022/05/17 17:51:22;;;;;;;4.32;1.52;;;;;;;;;;5110632;28;20061;-66
2022/05/17 17:53:48;;;;;;;5.95;1.67;;;;;;;;;;5111157;28;20079;-66
2022/05/17 17:56:15;;;;;;;4.28;1.60;;;;;;;;;;5113462;28;20024;-66
2022/05/17 17:58:41;;;;;;;4.75;1.92;;;;;;;;;;5113040;28;20023;-67
2022/05/17 18:01:09;;;;;;;4.28;1.70;;;;;;;;;;5113334;28;20024;-66
2022/05/17 18:03:35;;;;;;;6.85;1.90;;;;;;;;;;5113399;28;20078;-66
2022/05/17 18:06:02;;;;;;;3.58;1.42;;;;;;;;;;5113214;28;20460;-66
2022/05/17 18:08:28;;;;;;;3.55;1.70;;;;;;;;;;5113200;28;20032;-66
2022/05/17 18:10:54;;;;;;;4.72;1.80;;;;;;;;;;5113425;28;20570;-66
2022/05/17 18:13:32;;;;;;;6.68;2.55;;;;;;;;;;5110145;28;20073;-66
2022/05/17 18:15:58;;;;;;;11.38;1.90;;;;;;;;;;5110310;28;20100;-66
2022/05/17 18:18:25;;;;;;;6.43;2.42;;;;;;;;;;5111600;28;20390;-66
2022/05/17 18:20:52;;;;;;;6.35;2.03;;;;;;;;;;5113030;28;20047;-68
2022/05/17 18:23:18;;;;;;;3.92;1.88;;;;;;;;;;5113079;28;20026;-66
2022/05/17 18:25:46;;;;;;;3.28;1.73;;;;;;;;;;5113000;28;20433;-66
2022/05/17 18:28:26;;;;;;;5.15;1.98;;;;;;;;;;5112654;28;20024;-66
2022/05/17 18:30:52;;;;;;;3.53;1.58;;;;;;;;;;5112807;28;20484;-69
2022/05/17 18:33:22;;;;;;;5.25;2.08;;;;;;;;;;5111380;28;20034;-66
2022/05/17 18:35:49;;;;;;;6.78;2.17;;;;;;;;;;5094423;28;20055;-65
2022/05/17 18:38:15;;;;;;;3.55;1.73;;;;;;;;;;5112425;28;20028;-66
2022/05/17 18:40:41;;;;;;;6.00;1.90;;;;;;;;;;5115818;28;20019;-66
2022/05/17 18:43:07;;;;;;;6.95;1.92;;;;;;;;;;5116118;28;20028;-66
2022/05/17 18:45:33;;;;;;;7.10;1.98;;;;;;;;;;5116205;28;20472;-66
2022/05/17 18:48:00;;;;;;;3.45;2.30;;;;;;;;;;5116101;28;20027;-66
2022/05/17 18:50:27;;;;;;;5.80;2.03;;;;;;;;;;5115914;28;20154;-66
2022/05/17 18:52:53;;;;;;;9.98;2.58;;;;;;;;;;5116009;28;20078;-66
2022/05/17 18:55:19;;;;;;;7.28;2.30;;;;;;;;;;5116218;28;20098;-66
2022/05/17 18:57:46;;;;;;;7.03;2.28;;;;;;;;;;5116044;28;20061;-66
2022/05/17 19:00:17;;;;;;;7.88;2.22;;;;;;;;;;5116166;28;20032;-65
2022/05/17 19:02:45;;;;;;;16.75;2.22;;;;;;;;;;5115176;28;20095;-66
2022/05/17 19:05:11;;;;;;;10.20;2.88;;;;;;;;;;5114551;28;20042;-66
2022/05/17 19:15:52;;;;;;;4.32;2.10;;;;;;;;;;5116321;28;20045;-66
2022/05/17 19:18:18;;;;;;;3.65;2.28;;;;;;;;;;5116128;28;20429;-66
2022/05/17 19:20:44;;;;;;;13.82;2.83;;;;;;;;;;5115690;28;20024;-67
2022/05/17 19:23:11;;;;;;;8.63;2.22;;;;;;;;;;5115414;28;20068;-65
2022/05/17 19:25:37;;;;;;;6.70;2.28;;;;;;;;;;5115627;28;20027;-66
2022/05/17 19:28:03;;;;;;;3.97;2.40;;;;;;;;;;5115576;28;20023;-66
2022/05/17 19:30:30;;;;;;;8.68;2.63;;;;;;;;;;5114200;28;20023;-68
2022/05/17 19:32:57;;;;;;;6.22;2.70;;;;;;;;;;5114851;28;20028;-66
2022/05/17 19:35:25;;;;;;;11.45;2.60;;;;;;;;;;5114906;28;20054;-66
2022/05/17 19:40:37;;;;;;;9.80;2.85;;;;;;;;;;5114925;28;20112;-66
2022/05/17 19:43:05;;;;;;;8.98;2.90;;;;;;;;;;5114334;28;20027;-66
2022/05/17 19:45:31;;;;;;;7.30;2.90;;;;;;;;;;5114505;28;20020;-66
2022/05/17 19:47:59;;;;;;;11.60;3.45;;;;;;;;;;5114711;28;20027;-66
2022/05/17 19:50:27;;;;;;;13.27;2.83;;;;;;;;;;5115257;28;20387;-66
2022/05/17 19:52:53;;;;;;;13.77;3.15;;;;;;;;;;5114770;28;20055;-66
2022/05/17 19:55:20;;;;;;;10.90;3.38;;;;;;;;;;5114970;28;20456;-68
2022/05/17 19:57:46;;;;;;;3.45;2.30;;;;;;;;;;5114868;28;20031;-66
2022/05/17 20:00:13;;;;;;;9.10;3.08;;;;;;;;;;5115285;28;20539;-66